Time;durP1;ratioP1;P1;durP2;ratioP2;P2;SDS_P1;SDS_P2;PMS_P1;PMS_P2;Temp;Humidity;BMP_temperature;BMP_pressure;BME280_temperature;BME280_humidity;BME280_pressure;Samples;Min_cycle;Max_cycle;Signal;HPM_P1;HPM_P2
2023/07/10 00:02:03;;;;;;;6.00;4.65;;;;;;;;;;5052760;28;20029;-75
2023/07/10 00:04:28;;;;;;;5.70;4.47;;;;;;;;;;5052956;28;20048;-74
2023/07/10 00:06:54;;;;;;;5.00;4.27;;;;;;;;;;5052763;28;20029;-76
2023/07/10 00:09:19;;;;;;;6.95;4.70;;;;;;;;;;5051452;28;20082;-76
2023/07/10 00:11:45;;;;;;;6.40;4.50;;;;;;;;;;5052680;28;20045;-75
2023/07/10 00:14:19;;;;;;;7.43;4.60;;;;;;;;;;5052654;28;20021;-74
2023/07/10 00:16:44;;;;;;;8.23;4.63;;;;;;;;;;5052634;28;20028;-75
2023/07/10 00:19:11;;;;;;;8.25;4.78;;;;;;;;;;5052682;28;20023;-76
2023/07/10 00:21:36;;;;;;;5.93;4.60;;;;;;;;;;5051326;28;20029;-75
2023/07/10 00:24:01;;;;;;;8.93;4.70;;;;;;;;;;5052534;28;20025;-76
2023/07/10 00:26:26;;;;;;;8.07;4.50;;;;;;;;;;5052531;28;20032;-75
2023/07/10 00:28:54;;;;;;;7.80;5.00;;;;;;;;;;5052750;28;20021;-76
2023/07/10 00:31:20;;;;;;;7.43;4.65;;;;;;;;;;5052569;28;20067;-75
2023/07/10 00:33:47;;;;;;;6.20;4.53;;;;;;;;;;5052490;28;20053;-75
2023/07/10 00:36:30;;;;;;;6.50;4.72;;;;;;;;;;5051535;28;20098;-75
2023/07/10 00:38:59;;;;;;;8.43;5.50;;;;;;;;;;5051334;28;20025;-74
2023/07/10 00:41:30;;;;;;;7.65;4.38;;;;;;;;;;5052279;28;20091;-75
2023/07/10 00:44:00;;;;;;;7.63;5.10;;;;;;;;;;5051244;28;20025;-75
2023/07/10 00:46:35;;;;;;;7.93;4.82;;;;;;;;;;5051119;28;20075;-76
2023/07/10 00:49:08;;;;;;;9.88;5.28;;;;;;;;;;5052482;28;20060;-75
2023/07/10 00:51:37;;;;;;;;;;;;;;;;;;5053239;28;20105;-74
2023/07/10 00:54:04;;;;;;;8.50;4.90;;;;;;;;;;5052411;28;20338;-75
2023/07/10 00:56:41;;;;;;;6.78;4.70;;;;;;;;;;5054073;28;20025;-75
2023/07/10 00:59:24;;;;;;;10.32;4.68;;;;;;;;;;5054933;28;20040;-75
2023/07/10 01:02:08;;;;;;;;;;;;;;;;;;5056380;28;20040;-75
2023/07/10 01:04:39;;;;;;;7.57;4.68;;;;;;;;;;5056059;28;19955;-75
2023/07/10 01:07:07;;;;;;;6.80;4.65;;;;;;;;;;5056030;28;20055;-74
2023/07/10 01:09:32;;;;;;;7.45;4.55;;;;;;;;;;5055934;28;20020;-76
2023/07/10 01:11:58;;;;;;;9.05;4.40;;;;;;;;;;5056175;28;20116;-74
2023/07/10 01:14:24;;;;;;;7.30;4.93;;;;;;;;;;5055806;28;20033;-75
2023/07/10 01:16:49;;;;;;;7.88;4.80;;;;;;;;;;5055780;28;20801;-75
2023/07/10 01:19:18;;;;;;;8.37;4.90;;;;;;;;;;5055778;28;20033;-75
2023/07/10 01:21:44;;;;;;;8.57;4.97;;;;;;;;;;5056353;28;20257;-75
2023/07/10 01:24:09;;;;;;;6.07;4.27;;;;;;;;;;5056006;28;20051;-75
2023/07/10 01:26:38;;;;;;;9.07;4.80;;;;;;;;;;5055609;28;20258;-75
2023/07/10 01:29:03;;;;;;;8.07;4.47;;;;;;;;;;5055913;28;20479;-76
2023/07/10 01:31:30;;;;;;;7.22;4.70;;;;;;;;;;5055553;28;20056;-75
2023/07/10 01:33:59;;;;;;;6.97;4.45;;;;;;;;;;5054198;28;20121;-75
2023/07/10 01:36:29;;;;;;;6.05;4.90;;;;;;;;;;5055411;28;20021;-74
2023/07/10 01:39:02;;;;;;;6.00;4.40;;;;;;;;;;5055705;28;20170;-74
2023/07/10 01:41:32;;;;;;;9.17;4.50;;;;;;;;;;5055375;28;20116;-75
2023/07/10 01:43:59;;;;;;;8.30;4.85;;;;;;;;;;5056078;28;20028;-74
2023/07/10 01:46:27;;;;;;;8.07;4.63;;;;;;;;;;5053908;28;20017;-74
2023/07/10 01:48:57;;;;;;;11.27;5.15;;;;;;;;;;5055250;28;20083;-74
2023/07/10 01:51:23;;;;;;;7.63;4.60;;;;;;;;;;5055183;28;20032;-74
2023/07/10 01:53:49;;;;;;;9.18;4.30;;;;;;;;;;5055119;28;20380;-74
2023/07/10 01:56:18;;;;;;;9.18;4.53;;;;;;;;;;5055015;28;20036;-75
2023/07/10 01:58:43;;;;;;;8.60;3.92;;;;;;;;;;5055088;28;20035;-75
2023/07/10 02:01:09;;;;;;;8.20;4.17;;;;;;;;;;5053798;28;20470;-75
2023/07/10 02:03:34;;;;;;;12.43;4.10;;;;;;;;;;5055147;28;20288;-74
2023/07/10 02:05:59;;;;;;;7.35;4.30;;;;;;;;;;5054862;28;20112;-74
2023/07/10 02:08:25;;;;;;;6.87;4.30;;;;;;;;;;5055134;28;20049;-76
2023/07/10 02:10:50;;;;;;;18.23;5.13;;;;;;;;;;5054867;28;20264;-74
2023/07/10 02:13:16;;;;;;;11.57;5.57;;;;;;;;;;5053764;28;20040;-74
2023/07/10 02:15:41;;;;;;;21.73;5.57;;;;;;;;;;5053678;28;20021;-74
2023/07/10 02:18:06;;;;;;;9.90;5.10;;;;;;;;;;5054721;28;20082;-75
2023/07/10 02:20:31;;;;;;;12.83;5.90;;;;;;;;;;5054698;28;20679;-75
2023/07/10 02:22:57;;;;;;;12.47;5.53;;;;;;;;;;5054557;28;20626;-75
2023/07/10 02:25:22;;;;;;;8.20;5.57;;;;;;;;;;5054740;28;20262;-75
2023/07/10 02:27:48;;;;;;;12.20;6.53;;;;;;;;;;5054793;28;20257;-74
2023/07/10 02:30:13;;;;;;;11.98;6.38;;;;;;;;;;5054517;28;20266;-77
2023/07/10 02:32:38;;;;;;;9.90;5.77;;;;;;;;;;5054413;28;20506;-75
2023/07/10 02:35:04;;;;;;;9.27;6.10;;;;;;;;;;5054484;28;20261;-76
2023/07/10 02:37:29;;;;;;;9.60;5.50;;;;;;;;;;5054683;28;20258;-76
2023/07/10 02:39:54;;;;;;;6.90;5.00;;;;;;;;;;5054214;28;20056;-76
2023/07/10 02:42:19;;;;;;;8.67;5.63;;;;;;;;;;5052980;28;20626;-75
2023/07/10 02:44:44;;;;;;;6.43;4.20;;;;;;;;;;5054334;28;20257;-74
2023/07/10 02:47:10;;;;;;;8.90;5.37;;;;;;;;;;5054041;28;20033;-75
2023/07/10 02:49:35;;;;;;;7.03;4.67;;;;;;;;;;5054009;28;20384;-75
2023/07/10 02:52:00;;;;;;;10.00;5.23;;;;;;;;;;5054023;28;20285;-75
2023/07/10 02:54:25;;;;;;;8.90;5.20;;;;;;;;;;5053922;28;20059;-75
2023/07/10 02:56:50;;;;;;;8.67;5.40;;;;;;;;;;5054191;28;20289;-75
2023/07/10 02:59:16;;;;;;;9.13;5.17;;;;;;;;;;5053848;28;20261;-75
2023/07/10 03:01:41;;;;;;;10.30;5.10;;;;;;;;;;5053863;28;20265;-75
2023/07/10 03:04:06;;;;;;;10.33;5.50;;;;;;;;;;5053823;28;20694;-75
2023/07/10 03:06:31;;;;;;;7.07;5.20;;;;;;;;;;5053906;28;20669;-75
2023/07/10 03:08:58;;;;;;;7.63;5.80;;;;;;;;;;5053701;28;20746;-76
2023/07/10 03:11:24;;;;;;;8.98;5.15;;;;;;;;;;5053655;28;20262;-75
2023/07/10 03:13:49;;;;;;;8.00;5.45;;;;;;;;;;5052312;28;20040;-75
2023/07/10 03:16:16;;;;;;;7.03;5.15;;;;;;;;;;5053496;28;20029;-76
2023/07/10 03:18:41;;;;;;;9.57;5.70;;;;;;;;;;5053607;28;20021;-75
2023/07/10 03:21:08;;;;;;;7.10;5.13;;;;;;;;;;5052859;28;20033;-75
2023/07/10 03:23:34;;;;;;;9.10;5.30;;;;;;;;;;5053625;28;20033;-76
2023/07/10 03:25:59;;;;;;;10.48;5.65;;;;;;;;;;5053344;28;20029;-75
2023/07/10 03:28:24;;;;;;;8.68;5.28;;;;;;;;;;5053439;28;20029;-75
2023/07/10 03:30:50;;;;;;;9.20;5.38;;;;;;;;;;5053569;28;20491;-76
2023/07/10 03:33:17;;;;;;;8.05;5.18;;;;;;;;;;5053528;28;20024;-74
2023/07/10 03:35:43;;;;;;;7.38;5.07;;;;;;;;;;5051972;28;20029;-75
2023/07/10 03:38:09;;;;;;;8.23;5.47;;;;;;;;;;5053244;28;20025;-74
2023/07/10 03:40:34;;;;;;;7.60;5.20;;;;;;;;;;5053023;28;20035;-75
2023/07/10 03:43:00;;;;;;;8.88;5.53;;;;;;;;;;5051982;28;20032;-76
2023/07/10 03:45:25;;;;;;;15.57;5.20;;;;;;;;;;5053026;28;20158;-76
2023/07/10 03:47:50;;;;;;;8.25;5.28;;;;;;;;;;5053334;28;20028;-75
2023/07/10 03:50:17;;;;;;;8.87;4.83;;;;;;;;;;5053358;28;20025;-74
2023/07/10 03:52:43;;;;;;;9.18;5.10;;;;;;;;;;5053046;28;20017;-76
2023/07/10 03:55:08;;;;;;;5.90;4.65;;;;;;;;;;5051578;28;20475;-76
2023/07/10 03:57:33;;;;;;;8.43;5.40;;;;;;;;;;5052994;28;20024;-75
2023/07/10 03:59:58;;;;;;;9.33;5.40;;;;;;;;;;5051710;28;20040;-75
2023/07/10 04:02:24;;;;;;;8.43;5.40;;;;;;;;;;5052835;28;20278;-76
2023/07/10 04:04:49;;;;;;;7.53;5.20;;;;;;;;;;5053139;28;20048;-74
2023/07/10 04:07:17;;;;;;;5.90;4.80;;;;;;;;;;5052870;28;20025;-75
2023/07/10 04:09:42;;;;;;;5.63;4.78;;;;;;;;;;5052850;28;20513;-74
2023/07/10 04:12:07;;;;;;;7.03;5.00;;;;;;;;;;5051566;28;20058;-75
2023/07/10 04:14:36;;;;;;;6.70;5.10;;;;;;;;;;5052699;28;20652;-74
2023/07/10 04:17:01;;;;;;;8.65;4.75;;;;;;;;;;5052747;28;20078;-75
2023/07/10 04:19:27;;;;;;;8.20;4.88;;;;;;;;;;5053294;28;20029;-74
2023/07/10 04:21:52;;;;;;;8.87;4.70;;;;;;;;;;5051352;28;20400;-75
2023/07/10 04:24:17;;;;;;;8.20;5.20;;;;;;;;;;5051381;28;20403;-76
2023/07/10 04:26:42;;;;;;;7.90;4.88;;;;;;;;;;5052663;28;20667;-75
2023/07/10 04:29:09;;;;;;;6.23;4.47;;;;;;;;;;5052729;28;20040;-75
2023/07/10 04:31:35;;;;;;;8.23;4.68;;;;;;;;;;5053351;28;20261;-75
2023/07/10 04:34:00;;;;;;;6.22;4.78;;;;;;;;;;5056644;28;20131;-75
2023/07/10 04:36:26;;;;;;;7.03;4.80;;;;;;;;;;5056516;28;20021;-75
2023/07/10 04:38:51;;;;;;;7.50;5.20;;;;;;;;;;5056537;28;20059;-75
2023/07/10 04:41:19;;;;;;;8.25;4.93;;;;;;;;;;5055193;28;20033;-75
2023/07/10 04:43:45;;;;;;;6.72;5.05;;;;;;;;;;5055183;28;20381;-75
2023/07/10 04:46:11;;;;;;;7.40;4.97;;;;;;;;;;5056334;28;20051;-75
2023/07/10 04:48:37;;;;;;;6.72;4.75;;;;;;;;;;5056356;28;20033;-75
2023/07/10 04:51:05;;;;;;;7.90;4.90;;;;;;;;;;5056197;28;20029;-75
2023/07/10 04:53:31;;;;;;;8.65;5.18;;;;;;;;;;5056229;28;20292;-75
2023/07/10 04:55:57;;;;;;;9.77;5.05;;;;;;;;;;5056175;28;20025;-76
2023/07/10 04:58:23;;;;;;;9.00;5.50;;;;;;;;;;5056528;28;20143;-76
2023/07/10 05:00:53;;;;;;;6.75;4.93;;;;;;;;;;5056377;28;20037;-75
2023/07/10 05:03:18;;;;;;;5.93;4.80;;;;;;;;;;5056333;28;20028;-74
2023/07/10 05:05:58;;;;;;;8.02;4.70;;;;;;;;;;5056306;28;20025;-75
2023/07/10 05:08:25;;;;;;;6.78;5.22;;;;;;;;;;5056227;28;20077;-75
2023/07/10 05:10:51;;;;;;;7.30;4.70;;;;;;;;;;5054665;28;20028;-75
2023/07/10 05:13:18;;;;;;;7.25;4.75;;;;;;;;;;5054719;28;20158;-75
2023/07/10 05:15:43;;;;;;;8.35;5.20;;;;;;;;;;5055769;28;20043;-75
2023/07/10 05:18:09;;;;;;;6.90;4.72;;;;;;;;;;5056107;28;20032;-75
2023/07/10 05:20:34;;;;;;;7.63;5.45;;;;;;;;;;5056095;28;20028;-75
2023/07/10 05:22:59;;;;;;;7.30;4.63;;;;;;;;;;5055943;28;20021;-75
2023/07/10 05:25:24;;;;;;;10.90;4.93;;;;;;;;;;5056157;28;20269;-76
2023/07/10 05:27:49;;;;;;;6.83;4.87;;;;;;;;;;5056188;28;20262;-76
2023/07/10 05:30:15;;;;;;;8.70;5.20;;;;;;;;;;5055630;28;20043;-76
2023/07/10 05:32:40;;;;;;;8.20;4.90;;;;;;;;;;5054323;28;20262;-76
2023/07/10 05:35:05;;;;;;;7.37;5.17;;;;;;;;;;5055913;28;20058;-75
2023/07/10 05:37:30;;;;;;;7.85;4.72;;;;;;;;;;5055941;28;20253;-75
2023/07/10 05:39:56;;;;;;;6.60;4.97;;;;;;;;;;5055321;28;20032;-75
2023/07/10 05:42:21;;;;;;;9.47;4.90;;;;;;;;;;5054707;28;20036;-75
2023/07/10 05:44:46;;;;;;;6.15;5.07;;;;;;;;;;5055179;28;20025;-76
2023/07/10 05:47:11;;;;;;;11.87;5.33;;;;;;;;;;5055256;28;20107;-74
2023/07/10 05:49:37;;;;;;;10.73;4.73;;;;;;;;;;5055485;28;20102;-78
2023/07/10 05:52:02;;;;;;;11.60;5.68;;;;;;;;;;5055466;28;20032;-75
2023/07/10 05:54:27;;;;;;;8.30;5.10;;;;;;;;;;5055098;28;20487;-76
2023/07/10 05:56:52;;;;;;;10.67;5.27;;;;;;;;;;5055075;28;20033;-75
2023/07/10 05:59:18;;;;;;;7.23;5.10;;;;;;;;;;5055107;28;20048;-75
2023/07/10 06:01:43;;;;;;;7.00;5.30;;;;;;;;;;5055087;28;20048;-74
2023/07/10 06:04:08;;;;;;;9.45;4.93;;;;;;;;;;5055244;28;20041;-75
2023/07/10 06:06:33;;;;;;;7.20;5.22;;;;;;;;;;5054859;28;20053;-76
2023/07/10 06:08:59;;;;;;;7.47;4.90;;;;;;;;;;5055305;28;20555;-76
2023/07/10 06:11:24;;;;;;;10.32;5.40;;;;;;;;;;5053798;28;20056;-75
2023/07/10 06:13:50;;;;;;;6.65;5.00;;;;;;;;;;5054745;28;20059;-75
2023/07/10 06:16:15;;;;;;;6.50;5.03;;;;;;;;;;5054762;28;20025;-75
2023/07/10 06:18:40;;;;;;;5.37;4.80;;;;;;;;;;5054718;28;20115;-74
2023/07/10 06:21:07;;;;;;;8.35;5.50;;;;;;;;;;5054547;28;20067;-75
2023/07/10 06:23:33;;;;;;;10.80;5.72;;;;;;;;;;5054637;28;20060;-74
2023/07/10 06:25:59;;;;;;;7.70;5.38;;;;;;;;;;5054638;28;20522;-74
2023/07/10 06:28:25;;;;;;;7.82;4.97;;;;;;;;;;5054484;28;20032;-76
2023/07/10 06:31:02;;;;;;;10.48;5.45;;;;;;;;;;5054654;28;20107;-75
2023/07/10 06:33:30;;;;;;;7.82;4.75;;;;;;;;;;5054566;28;20032;-75
2023/07/10 06:35:55;;;;;;;11.80;5.05;;;;;;;;;;5053066;28;20036;-76
2023/07/10 06:38:21;;;;;;;10.75;4.45;;;;;;;;;;5054274;28;20021;-75
2023/07/10 06:40:48;;;;;;;8.82;4.72;;;;;;;;;;5054059;28;20499;-75
2023/07/10 06:43:13;;;;;;;9.90;4.90;;;;;;;;;;5054113;28;20029;-76
2023/07/10 06:45:39;;;;;;;7.90;4.40;;;;;;;;;;5052760;28;20029;-75
2023/07/10 06:48:06;;;;;;;11.70;4.57;;;;;;;;;;5053087;28;20053;-74
2023/07/10 06:50:31;;;;;;;6.38;4.30;;;;;;;;;;5054195;28;20076;-75
2023/07/10 06:52:57;;;;;;;7.70;4.50;;;;;;;;;;5054269;28;20472;-75
2023/07/10 06:55:22;;;;;;;10.45;4.60;;;;;;;;;;5053960;28;20098;-74
2023/07/10 06:57:47;;;;;;;4.37;3.90;;;;;;;;;;5054317;28;20027;-76
2023/07/10 07:00:14;;;;;;;7.70;4.20;;;;;;;;;;5054066;28;20290;-75
2023/07/10 07:02:39;;;;;;;5.88;4.15;;;;;;;;;;5053790;28;20040;-74
2023/07/10 07:05:06;;;;;;;5.93;4.37;;;;;;;;;;5053836;28;20388;-76
2023/07/10 07:07:32;;;;;;;7.18;4.50;;;;;;;;;;5053810;28;20258;-76
2023/07/10 07:09:57;;;;;;;8.05;4.60;;;;;;;;;;5053767;28;20021;-75
2023/07/10 07:12:22;;;;;;;7.18;4.57;;;;;;;;;;5053784;28;20029;-76
2023/07/10 07:14:47;;;;;;;8.03;4.77;;;;;;;;;;5053584;28;20422;-74
2023/07/10 07:17:14;;;;;;;5.83;4.60;;;;;;;;;;5053713;28;20629;-74
2023/07/10 07:19:41;;;;;;;7.72;4.68;;;;;;;;;;5053788;28;20259;-75
2023/07/10 07:22:06;;;;;;;7.82;4.63;;;;;;;;;;5053516;28;20029;-76
2023/07/10 07:24:31;;;;;;;8.53;4.43;;;;;;;;;;5053386;28;20033;-77
2023/07/10 07:26:57;;;;;;;6.27;4.53;;;;;;;;;;5053498;28;20094;-77
2023/07/10 07:29:22;;;;;;;5.75;4.47;;;;;;;;;;5052243;28;20024;-75
2023/07/10 07:31:47;;;;;;;11.17;4.03;;;;;;;;;;5053406;28;20053;-75
2023/07/10 07:34:12;;;;;;;5.00;4.10;;;;;;;;;;5052686;28;20289;-76
2023/07/10 07:36:38;;;;;;;6.00;4.10;;;;;;;;;;5053231;28;20028;-75
2023/07/10 07:39:04;;;;;;;7.65;4.20;;;;;;;;;;5053341;28;20024;-76
2023/07/10 07:41:34;;;;;;;7.25;4.38;;;;;;;;;;5053069;28;20036;-75
2023/07/10 07:44:01;;;;;;;10.02;4.70;;;;;;;;;;5053249;28;20040;-76
2023/07/10 07:46:27;;;;;;;5.25;4.10;;;;;;;;;;5053465;28;20033;-76
2023/07/10 07:48:52;;;;;;;6.13;5.00;;;;;;;;;;5053212;28;20631;-76
2023/07/10 07:51:17;;;;;;;12.10;4.40;;;;;;;;;;5051920;28;20369;-76
2023/07/10 07:53:42;;;;;;;6.37;4.23;;;;;;;;;;5053008;28;20258;-76
2023/07/10 07:56:09;;;;;;;6.50;4.03;;;;;;;;;;5053191;28;20031;-77
2023/07/10 07:58:34;;;;;;;8.88;4.40;;;;;;;;;;5052160;28;20397;-75
2023/07/10 08:01:00;;;;;;;6.53;4.10;;;;;;;;;;5053106;28;20106;-75
2023/07/10 08:03:26;;;;;;;6.72;4.28;;;;;;;;;;5053072;28;20021;-77
2023/07/10 08:05:52;;;;;;;6.70;4.30;;;;;;;;;;5052620;28;20033;-75
2023/07/10 08:08:17;;;;;;;8.07;4.53;;;;;;;;;;5052966;28;20399;-75
2023/07/10 08:10:46;;;;;;;6.97;4.50;;;;;;;;;;5051684;28;20029;-75
2023/07/10 08:13:12;;;;;;;9.13;4.40;;;;;;;;;;5053151;28;20464;-75
2023/07/10 08:15:38;;;;;;;6.57;4.05;;;;;;;;;;5052643;28;20523;-76
2023/07/10 08:18:03;;;;;;;4.40;3.90;;;;;;;;;;5052672;28;20021;-75
2023/07/10 08:20:29;;;;;;;9.40;4.40;;;;;;;;;;5053020;28;20108;-74
2023/07/10 08:22:54;;;;;;;9.55;4.15;;;;;;;;;;5053173;28;20284;-75
2023/07/10 08:25:20;;;;;;;15.63;4.13;;;;;;;;;;5052584;28;20051;-75
2023/07/10 08:27:45;;;;;;;6.00;4.35;;;;;;;;;;5052789;28;20529;-74
2023/07/10 08:30:12;;;;;;;8.27;4.40;;;;;;;;;;5051429;28;20033;-76
2023/07/10 08:32:37;;;;;;;8.60;4.40;;;;;;;;;;5051772;28;20048;-75
2023/07/10 08:35:03;;;;;;;7.23;4.33;;;;;;;;;;5052741;28;20476;-76
2023/07/10 08:37:28;;;;;;;7.65;4.28;;;;;;;;;;5052875;28;20328;-75
2023/07/10 08:39:56;;;;;;;6.40;4.30;;;;;;;;;;5052497;28;20045;-74
2023/07/10 08:42:24;;;;;;;7.53;4.53;;;;;;;;;;5052385;28;20791;-76
2023/07/10 08:44:51;;;;;;;7.63;4.15;;;;;;;;;;5051283;28;20028;-75
2023/07/10 08:47:24;;;;;;;6.63;4.25;;;;;;;;;;5052485;28;20488;-75
2023/07/10 08:50:06;;;;;;;9.50;4.38;;;;;;;;;;5052449;28;20052;-77
2023/07/10 08:53:06;;;;;;;6.80;4.00;;;;;;;;;;5052778;28;20075;-75
2023/07/10 08:55:57;;;;;;;6.53;4.20;;;;;;;;;;5052372;28;20039;-75
2023/07/10 08:58:27;;;;;;;6.32;4.10;;;;;;;;;;5052313;28;20032;-75
2023/07/10 09:00:57;;;;;;;12.35;4.35;;;;;;;;;;5052338;28;20571;-75
2023/07/10 09:03:41;;;;;;;7.95;4.00;;;;;;;;;;5052505;28;20044;-74
2023/07/10 09:06:17;;;;;;;6.93;4.38;;;;;;;;;;5051105;28;20067;-75
2023/07/10 09:08:46;;;;;;;5.60;4.40;;;;;;;;;;5052755;28;20036;-75
2023/07/10 09:11:13;;;;;;;5.57;3.95;;;;;;;;;;5052606;28;20456;-75
2023/07/10 09:13:43;;;;;;;7.35;4.03;;;;;;;;;;5052444;28;20059;-76
2023/07/10 09:16:17;;;;;;;10.55;4.15;;;;;;;;;;5052371;28;20055;-76
2023/07/10 09:18:53;;;;;;;6.57;4.10;;;;;;;;;;5054346;28;20040;-75
2023/07/10 09:21:21;;;;;;;7.43;4.38;;;;;;;;;;5056227;28;20028;-75
2023/07/10 09:23:48;;;;;;;8.38;4.30;;;;;;;;;;5056091;28;20028;-76
2023/07/10 09:26:26;;;;;;;7.40;4.93;;;;;;;;;;5054460;28;20017;-75
2023/07/10 09:29:11;;;;;;;6.88;4.22;;;;;;;;;;5056048;28;20035;-75
2023/07/10 09:31:51;;;;;;;6.43;4.07;;;;;;;;;;5055744;28;20029;-75
2023/07/10 09:34:21;;;;;;;7.82;4.75;;;;;;;;;;5055553;28;20479;-75
2023/07/10 09:36:52;;;;;;;6.93;4.07;;;;;;;;;;5055569;28;20021;-75
2023/07/10 09:39:17;;;;;;;8.90;4.68;;;;;;;;;;5055457;28;20021;-76
2023/07/10 09:41:44;;;;;;;9.95;4.45;;;;;;;;;;5055251;28;20565;-74
2023/07/10 09:44:21;;;;;;;7.03;4.07;;;;;;;;;;5055291;28;20036;-75
2023/07/10 09:46:47;;;;;;;7.82;4.28;;;;;;;;;;5055381;28;20032;-75
2023/07/10 09:49:21;;;;;;;7.55;4.68;;;;;;;;;;5055411;28;20059;-75
2023/07/10 09:52:00;;;;;;;7.18;4.00;;;;;;;;;;5054069;28;20103;-75
2023/07/10 09:54:38;;;;;;;5.38;4.05;;;;;;;;;;5053797;28;20052;-75
2023/07/10 09:57:11;;;;;;;6.05;4.07;;;;;;;;;;5053870;28;20098;-75
2023/07/10 09:59:37;;;;;;;8.02;4.18;;;;;;;;;;5055747;28;20472;-75
2023/07/10 10:02:16;;;;;;;6.50;4.33;;;;;;;;;;5054951;28;20036;-75
2023/07/10 10:04:42;;;;;;;5.65;4.05;;;;;;;;;;5055005;28;20028;-75
2023/07/10 10:07:13;;;;;;;6.22;3.95;;;;;;;;;;5055106;28;20078;-75
2023/07/10 10:09:38;;;;;;;9.50;4.40;;;;;;;;;;5055021;28;20400;-73
2023/07/10 10:12:22;;;;;;;8.48;4.18;;;;;;;;;;5054859;28;20027;-76
2023/07/10 10:14:56;;;;;;;5.25;4.30;;;;;;;;;;5054939;28;20503;-76
2023/07/10 10:17:23;;;;;;;;;;;;;;;;;;5055186;28;20068;-75
2023/07/10 10:20:15;;;;;;;5.85;4.20;;;;;;;;;;5054620;28;19909;-74
2023/07/10 10:22:40;;;;;;;7.00;4.22;;;;;;;;;;5053282;28;20021;-77
2023/07/10 10:25:17;;;;;;;7.17;4.30;;;;;;;;;;5055288;28;20027;-75
2023/07/10 10:27:56;;;;;;;6.75;4.25;;;;;;;;;;5054763;28;20258;-75
2023/07/10 10:30:37;;;;;;;10.00;4.32;;;;;;;;;;5054010;28;20100;-76
2023/07/10 10:33:07;;;;;;;7.28;4.45;;;;;;;;;;5054455;28;20032;-75
2023/07/10 10:35:50;;;;;;;8.82;4.53;;;;;;;;;;5054915;28;20029;-76
2023/07/10 10:38:43;;;;;;;6.88;4.25;;;;;;;;;;5054714;28;20475;-75
2023/07/10 10:41:18;;;;;;;6.43;4.30;;;;;;;;;;5053151;28;20079;-75
2023/07/10 10:43:55;;;;;;;8.07;4.00;;;;;;;;;;5054759;28;20028;-75
2023/07/10 10:46:35;;;;;;;10.23;4.68;;;;;;;;;;5052933;28;20115;-75
2023/07/10 10:49:10;;;;;;;7.00;4.70;;;;;;;;;;5052889;28;20024;-75
2023/07/10 10:51:57;;;;;;;10.13;4.65;;;;;;;;;;5054133;28;20025;-75
2023/07/10 10:54:34;;;;;;;10.68;5.15;;;;;;;;;;5054269;28;20029;-75
2023/07/10 10:57:12;;;;;;;7.60;4.90;;;;;;;;;;5054003;28;20025;-75
2023/07/10 10:59:51;;;;;;;8.80;4.40;;;;;;;;;;5053938;28;20104;-75
2023/07/10 11:02:43;;;;;;;7.15;4.53;;;;;;;;;;5052458;28;20021;-75
2023/07/10 11:05:29;;;;;;;7.88;4.38;;;;;;;;;;5052624;28;20021;-76
2023/07/10 11:07:57;;;;;;;6.63;4.60;;;;;;;;;;5054057;28;20483;-75
2023/07/10 11:10:30;;;;;;;9.77;4.20;;;;;;;;;;5053889;28;20020;-75
2023/07/10 11:12:56;;;;;;;12.30;5.35;;;;;;;;;;5054027;28;20025;-75
2023/07/10 11:15:22;;;;;;;8.85;4.63;;;;;;;;;;5053839;28;20155;-75
2023/07/10 11:17:50;;;;;;;9.27;4.45;;;;;;;;;;5054005;28;20025;-75
2023/07/10 11:20:17;;;;;;;9.70;5.07;;;;;;;;;;5053573;28;20506;-76
2023/07/10 11:22:56;;;;;;;7.20;5.03;;;;;;;;;;5053394;28;20029;-75
2023/07/10 11:25:29;;;;;;;12.65;5.70;;;;;;;;;;5053523;28;20108;-75
2023/07/10 11:27:54;;;;;;;9.73;5.53;;;;;;;;;;5053655;28;20108;-75
2023/07/10 11:30:30;;;;;;;11.80;6.07;;;;;;;;;;5053492;28;20064;-76
2023/07/10 11:32:55;;;;;;;9.98;5.80;;;;;;;;;;5053437;28;20435;-76
2023/07/10 11:35:22;;;;;;;19.33;5.83;;;;;;;;;;5053349;28;20029;-75
2023/07/10 11:37:47;;;;;;;7.32;5.57;;;;;;;;;;5053475;28;20484;-76
2023/07/10 11:40:28;;;;;;;10.03;5.57;;;;;;;;;;5051457;28;20032;-76
2023/07/10 11:42:53;;;;;;;9.68;6.18;;;;;;;;;;5053241;28;20031;-76
2023/07/10 11:45:25;;;;;;;11.38;6.18;;;;;;;;;;5053138;28;20024;-75
2023/07/10 11:47:52;;;;;;;11.55;6.05;;;;;;;;;;5053596;28;20361;-74
2023/07/10 11:50:26;;;;;;;8.65;5.57;;;;;;;;;;5051925;28;20381;-76
2023/07/10 11:53:22;;;;;;;7.22;5.80;;;;;;;;;;5053390;28;20021;-76
2023/07/10 11:55:58;;;;;;;14.45;5.95;;;;;;;;;;5053322;28;20029;-75
2023/07/10 11:58:28;;;;;;;12.52;6.03;;;;;;;;;;5053161;28;20068;-75
2023/07/10 12:01:17;;;;;;;10.70;6.22;;;;;;;;;;5051974;28;20496;-75
2023/07/10 12:03:43;;;;;;;10.75;6.30;;;;;;;;;;5037469;28;20128;-74
2023/07/10 12:06:20;;;;;;;10.50;5.90;;;;;;;;;;5052912;28;20053;-75
2023/07/10 12:08:46;;;;;;;9.35;6.13;;;;;;;;;;5052809;28;20025;-76
2023/07/10 12:11:30;;;;;;;10.07;5.93;;;;;;;;;;5052848;28;20039;-76
2023/07/10 12:14:01;;;;;;;;;;;;;;;;;;5053885;28;20468;-75
2023/07/10 12:16:26;;;;;;;8.35;5.43;;;;;;;;;;5051565;28;19909;-75
2023/07/10 12:18:52;;;;;;;9.77;6.00;;;;;;;;;;5053033;28;20029;-75
2023/07/10 12:21:21;;;;;;;14.23;5.33;;;;;;;;;;5053089;28;20733;-75
2023/07/10 12:24:02;;;;;;;11.80;6.28;;;;;;;;;;5053018;28;20025;-75
2023/07/10 12:26:27;;;;;;;10.70;5.18;;;;;;;;;;5052737;28;20029;-75
2023/07/10 12:28:54;;;;;;;10.68;5.93;;;;;;;;;;5051547;28;20037;-75
2023/07/10 12:31:20;;;;;;;9.15;5.43;;;;;;;;;;5052785;28;20078;-75
2023/07/10 12:33:48;;;;;;;10.73;5.60;;;;;;;;;;5052673;28;20100;-75
2023/07/10 12:36:37;;;;;;;12.30;5.50;;;;;;;;;;5052560;28;20020;-75
2023/07/10 12:39:07;;;;;;;9.93;6.03;;;;;;;;;;5052681;28;20064;-74
2023/07/10 12:41:34;;;;;;;10.27;5.93;;;;;;;;;;5051129;28;20044;-75
2023/07/10 12:44:01;;;;;;;11.35;5.53;;;;;;;;;;5052826;28;20126;-74
2023/07/10 12:46:29;;;;;;;8.73;4.97;;;;;;;;;;5052468;28;20033;-75
2023/07/10 12:48:58;;;;;;;9.80;5.05;;;;;;;;;;5052737;28;20472;-75
2023/07/10 12:51:28;;;;;;;11.52;5.47;;;;;;;;;;5052562;28;20033;-76
2023/07/10 12:53:54;;;;;;;16.98;5.38;;;;;;;;;;5056436;28;20483;-74
2023/07/10 12:56:37;;;;;;;9.48;5.22;;;;;;;;;;5056311;28;20037;-74
2023/07/10 12:59:18;;;;;;;7.30;5.30;;;;;;;;;;5054998;28;20021;-74
2023/07/10 13:01:51;;;;;;;9.23;5.55;;;;;;;;;;5056414;28;20025;-75
2023/07/10 13:04:24;;;;;;;;;;;;;;;;;;5056873;28;20074;-73
2023/07/10 13:07:11;;;;;;;14.20;5.72;;;;;;;;;;5060879;28;19913;-74
2023/07/10 13:09:37;;;;;;;12.50;4.53;;;;;;;;;;5055132;28;20386;-75
2023/07/10 13:12:04;;;;;;;11.30;4.93;;;;;;;;;;5057473;28;20045;-73
2023/07/10 13:14:33;;;;;;;9.88;5.95;;;;;;;;;;5055069;28;20016;-74
2023/07/10 13:16:59;;;;;;;10.98;5.80;;;;;;;;;;5056342;28;20430;-74
2023/07/10 13:19:24;;;;;;;13.70;6.30;;;;;;;;;;5056150;28;20070;-74
2023/07/10 13:21:50;;;;;;;11.52;6.70;;;;;;;;;;5056005;28;20083;-74
2023/07/10 13:24:15;;;;;;;11.27;6.90;;;;;;;;;;5055925;28;20071;-74
2023/07/10 13:26:47;;;;;;;9.90;7.70;;;;;;;;;;5055780;28;20258;-74
2023/07/10 13:29:13;;;;;;;11.57;7.25;;;;;;;;;;5055995;28;20262;-75
2023/07/10 13:31:39;;;;;;;11.90;8.02;;;;;;;;;;5055755;28;20021;-75
2023/07/10 13:34:04;;;;;;;10.98;7.72;;;;;;;;;;5055672;28;20373;-75
2023/07/10 13:36:29;;;;;;;14.73;7.77;;;;;;;;;;5056086;28;20045;-74
2023/07/10 13:38:55;;;;;;;9.93;6.90;;;;;;;;;;5055675;28;20025;-74
2023/07/10 13:41:25;;;;;;;10.23;6.88;;;;;;;;;;5055518;28;20490;-74
2023/07/10 13:43:51;;;;;;;10.77;7.07;;;;;;;;;;5056219;28;20104;-74
2023/07/10 13:46:25;;;;;;;11.80;6.32;;;;;;;;;;5055478;28;20105;-74
2023/07/10 13:48:53;;;;;;;10.00;6.35;;;;;;;;;;5055849;28;20025;-75
2023/07/10 13:51:20;;;;;;;10.13;5.75;;;;;;;;;;5054073;28;20025;-74
2023/07/10 13:53:46;;;;;;;11.85;4.78;;;;;;;;;;5054061;28;20052;-74
2023/07/10 13:56:22;;;;;;;12.80;4.78;;;;;;;;;;5055919;28;20021;-75
2023/07/10 13:58:48;;;;;;;10.25;4.90;;;;;;;;;;5056289;28;20029;-74
2023/07/10 14:01:13;;;;;;;7.60;4.88;;;;;;;;;;5054276;28;20440;-75
2023/07/10 14:03:40;;;;;;;12.25;4.93;;;;;;;;;;5054412;28;20491;-75
2023/07/10 14:06:27;;;;;;;8.68;4.32;;;;;;;;;;5055336;28;20021;-75
2023/07/10 14:08:55;;;;;;;7.88;4.57;;;;;;;;;;5055431;28;20089;-74
2023/07/10 14:11:22;;;;;;;8.38;4.30;;;;;;;;;;5055307;28;20112;-74
2023/07/10 14:13:48;;;;;;;9.70;4.30;;;;;;;;;;5055164;28;20028;-75
2023/07/10 14:16:20;;;;;;;5.72;4.30;;;;;;;;;;5055163;28;20025;-74
2023/07/10 14:18:46;;;;;;;7.85;3.95;;;;;;;;;;5055670;28;20035;-74
2023/07/10 14:21:12;;;;;;;8.18;4.30;;;;;;;;;;5055109;28;20037;-74
2023/07/10 14:23:37;;;;;;;8.15;4.25;;;;;;;;;;5055507;28;20025;-74
2023/07/10 14:26:19;;;;;;;6.18;3.80;;;;;;;;;;5054879;28;20027;-75
2023/07/10 14:28:46;;;;;;;7.70;4.28;;;;;;;;;;5055523;28;20021;-75
2023/07/10 14:31:12;;;;;;;9.27;4.30;;;;;;;;;;5054948;28;20029;-74
2023/07/10 14:33:37;;;;;;;5.45;4.30;;;;;;;;;;5054792;28;20031;-74
2023/07/10 14:36:10;;;;;;;4.97;4.07;;;;;;;;;;5054888;28;20426;-74
2023/07/10 14:38:35;;;;;;;6.55;3.97;;;;;;;;;;5053643;28;20025;-74
2023/07/10 14:41:00;;;;;;;8.93;4.10;;;;;;;;;;5054775;28;20116;-74
2023/07/10 14:43:25;;;;;;;6.30;4.47;;;;;;;;;;5054641;28;20111;-75
2023/07/10 14:45:57;;;;;;;6.63;4.25;;;;;;;;;;5054620;28;20063;-74
2023/07/10 14:48:25;;;;;;;8.02;4.13;;;;;;;;;;5054241;28;20036;-74
2023/07/10 14:50:50;;;;;;;6.07;3.83;;;;;;;;;;5054449;28;20162;-74